createdAt,value
2022-11-15T00:00:12.046Z,6.85
2022-11-15T00:02:57.225Z,6.85
2022-11-15T00:05:43.184Z,6.81
2022-11-15T00:08:31.451Z,6.88
2022-11-15T00:11:17.063Z,6.90
2022-11-15T00:14:05.200Z,6.91
2022-11-15T00:16:50.150Z,6.92
2022-11-15T00:19:35.957Z,6.91
2022-11-15T00:22:21.341Z,6.92
2022-11-15T00:25:07.089Z,6.93
2022-11-15T00:27:55.664Z,6.95
2022-11-15T00:30:40.787Z,6.96
2022-11-15T00:33:25.966Z,6.97
2022-11-15T00:36:12.010Z,6.95
2022-11-15T00:38:57.043Z,6.99
2022-11-15T00:41:42.406Z,7.01
2022-11-15T00:44:27.950Z,7.00
2022-11-15T00:47:14.673Z,6.98
2022-11-15T00:49:59.699Z,6.98
2022-11-15T00:52:45.308Z,7.04
2022-11-15T00:55:30.757Z,7.02
2022-11-15T00:58:16.047Z,7.00
2022-11-15T01:01:12.718Z,6.96
2022-11-15T01:04:01.288Z,6.91
2022-11-15T01:06:47.182Z,6.84
2022-11-15T01:09:32.463Z,6.82
2022-11-15T01:12:17.627Z,6.65
2022-11-15T01:15:03.954Z,6.79
2022-11-15T01:17:49.252Z,6.78
2022-11-15T01:20:34.576Z,6.78
2022-11-15T01:23:19.792Z,6.76
2022-11-15T01:26:07.618Z,6.78
2022-11-15T01:28:53.304Z,6.76
2022-11-15T01:31:39.085Z,6.78
2022-11-15T01:34:24.298Z,6.80
2022-11-15T01:37:09.621Z,6.79
2022-11-15T01:39:54.932Z,6.79
2022-11-15T01:42:40.287Z,6.77
2022-11-15T01:45:26.156Z,6.78
2022-11-15T01:48:12.058Z,6.79
2022-11-15T01:50:58.224Z,6.78
2022-11-15T01:53:47.152Z,6.75
2022-11-15T01:56:37.157Z,6.75
2022-11-15T01:59:23.912Z,6.71
2022-11-15T02:02:09.825Z,6.75
2022-11-15T02:04:55.544Z,6.75
2022-11-15T02:07:41.508Z,6.69
2022-11-15T02:10:26.896Z,6.72
2022-11-15T02:13:12.148Z,6.73
2022-11-15T02:16:30.868Z,6.73
2022-11-15T02:19:28.272Z,6.73
2022-11-15T02:22:41.091Z,6.69
2022-11-15T02:26:05.170Z,6.69
2022-11-15T02:29:11.376Z,6.70
2022-11-15T02:32:24.885Z,6.66
2022-11-15T02:35:13.174Z,6.64
2022-11-15T02:38:04.581Z,6.62
2022-11-15T02:41:20.933Z,6.67
2022-11-15T02:44:15.369Z,6.69
2022-11-15T02:47:16.174Z,6.70
2022-11-15T02:50:11.170Z,6.69
2022-11-15T02:52:57.309Z,6.69
2022-11-15T02:55:47.284Z,6.67
2022-11-15T02:58:58.043Z,6.68
2022-11-15T03:01:49.425Z,6.66
2022-11-15T03:04:34.677Z,6.63
2022-11-15T03:07:33.912Z,6.63
2022-11-15T03:10:33.620Z,6.63
2022-11-15T03:13:45.012Z,6.62
2022-11-15T03:16:50.189Z,6.59
2022-11-15T03:19:44.148Z,6.55
2022-11-15T03:22:34.555Z,6.54
2022-11-15T03:25:23.898Z,6.55
2022-11-15T03:28:12.485Z,6.55
2022-11-15T03:31:01.243Z,6.55
2022-11-15T03:33:46.402Z,6.56
2022-11-15T03:36:34.682Z,6.56
2022-11-15T03:39:20.991Z,6.53
2022-11-15T03:42:19.119Z,6.55
2022-11-15T03:45:16.804Z,6.55
2022-11-15T03:48:14.632Z,6.54
2022-11-15T03:51:00.335Z,6.49
2022-11-15T03:53:46.493Z,6.50
2022-11-15T03:56:32.034Z,6.47
2022-11-15T03:59:17.536Z,6.49
2022-11-15T04:02:02.826Z,6.49
2022-11-15T04:04:48.106Z,6.49
2022-11-15T04:07:33.422Z,6.55
2022-11-15T04:10:19.543Z,6.56
2022-11-15T04:13:05.166Z,6.59
2022-11-15T04:15:50.244Z,6.50
2022-11-15T04:18:35.467Z,6.60
2022-11-15T04:21:39.118Z,6.58
2022-11-15T04:24:24.237Z,6.58
2022-11-15T04:27:09.610Z,6.54
2022-11-15T04:29:54.920Z,6.52
2022-11-15T04:32:40.439Z,6.50
2022-11-15T04:35:25.897Z,6.47
2022-11-15T04:38:11.983Z,6.46
2022-11-15T04:40:57.324Z,6.43
2022-11-15T04:43:42.551Z,6.44
2022-11-15T04:46:28.217Z,6.42
2022-11-15T04:49:13.850Z,6.44
2022-11-15T04:51:59.775Z,6.43
2022-11-15T04:54:45.739Z,6.42
2022-11-15T04:57:30.967Z,6.38
2022-11-15T05:00:18.085Z,6.32
2022-11-15T05:03:22.634Z,6.28
2022-11-15T05:06:08.111Z,6.23
2022-11-15T05:08:53.998Z,6.24
2022-11-15T05:11:39.479Z,6.21
2022-11-15T05:14:24.949Z,6.25
2022-11-15T05:17:10.146Z,6.25
2022-11-15T05:19:55.466Z,6.26
2022-11-15T05:22:41.362Z,6.26
2022-11-15T05:25:27.201Z,6.19
2022-11-15T05:28:12.360Z,6.24
2022-11-15T05:31:09.271Z,6.23
2022-11-15T05:33:56.002Z,6.26
2022-11-15T05:36:48.414Z,6.28
2022-11-15T05:39:34.090Z,6.27
2022-11-15T05:42:20.631Z,6.28
2022-11-15T05:45:09.513Z,6.26
2022-11-15T05:47:58.570Z,6.26
2022-11-15T05:50:47.455Z,6.26
2022-11-15T05:53:34.063Z,6.28
2022-11-15T05:56:19.883Z,6.27
2022-11-15T05:59:05.564Z,6.30
2022-11-15T06:01:52.267Z,6.29
2022-11-15T06:04:37.749Z,6.32
2022-11-15T06:07:23.155Z,6.33
2022-11-15T06:10:09.326Z,6.33
2022-11-15T06:13:02.699Z,6.32
2022-11-15T06:15:48.509Z,6.35
2022-11-15T06:18:35.193Z,6.34
2022-11-15T06:21:20.517Z,6.36
2022-11-15T06:24:06.452Z,6.36
2022-11-15T06:26:51.861Z,6.39
2022-11-15T06:29:36.931Z,6.35
2022-11-15T06:32:22.265Z,6.41
2022-11-15T06:35:07.817Z,6.43
2022-11-15T06:37:52.840Z,6.42
2022-11-15T06:40:39.450Z,6.39
2022-11-15T06:43:24.579Z,6.35
2022-11-15T06:46:10.445Z,6.36
2022-11-15T06:48:55.524Z,6.35
2022-11-15T06:51:40.881Z,6.32
2022-11-15T06:54:26.074Z,6.30
2022-11-15T06:57:11.485Z,6.31
2022-11-15T06:59:56.695Z,6.33
2022-11-15T07:02:42.129Z,6.32
2022-11-15T07:05:28.333Z,6.33
2022-11-15T07:08:13.315Z,6.37
2022-11-15T07:11:04.338Z,6.40
2022-11-15T07:13:49.472Z,6.41
2022-11-15T07:16:34.647Z,6.47
2022-11-15T07:19:20.059Z,6.49
2022-11-15T07:22:05.475Z,6.52
2022-11-15T07:24:50.964Z,6.56
2022-11-15T07:27:36.468Z,6.57
2022-11-15T07:30:21.992Z,6.62
2022-11-15T07:33:08.639Z,6.68
2022-11-15T07:35:54.360Z,6.70
2022-11-15T07:38:42.751Z,6.77
2022-11-15T07:41:28.565Z,6.76
2022-11-15T07:44:13.767Z,6.84
2022-11-15T07:46:59.208Z,6.88
2022-11-15T07:49:44.481Z,6.88
2022-11-15T07:52:29.862Z,6.97
2022-11-15T07:55:15.316Z,7.00
2022-11-15T07:58:04.681Z,7.00
2022-11-15T08:00:49.929Z,7.01
2022-11-15T08:03:35.849Z,7.01
2022-11-15T08:06:21.195Z,7.02
2022-11-15T08:09:06.424Z,7.04
2022-11-15T08:11:55.228Z,7.02
2022-11-15T08:14:44.439Z,7.08
2022-11-15T08:17:33.696Z,7.13
2022-11-15T08:20:20.498Z,7.16
2022-11-15T08:23:06.954Z,7.19
2022-11-15T08:25:54.833Z,7.21
2022-11-15T08:28:40.076Z,7.23
2022-11-15T08:31:25.457Z,7.25
2022-11-15T08:34:10.702Z,7.25
2022-11-15T08:36:56.011Z,7.29
2022-11-15T08:39:41.476Z,7.34
2022-11-15T08:42:26.659Z,7.36
2022-11-15T08:45:15.946Z,7.38
2022-11-15T08:48:03.222Z,7.40
2022-11-15T08:50:48.465Z,7.46
2022-11-15T08:53:34.869Z,7.49
2022-11-15T08:56:20.103Z,7.49
2022-11-15T08:59:05.569Z,7.50
2022-11-15T09:01:51.119Z,7.56
2022-11-15T09:04:36.193Z,7.57
2022-11-15T09:07:21.667Z,7.57
2022-11-15T09:10:07.272Z,7.60
2022-11-15T09:12:52.783Z,7.60
2022-11-15T09:15:37.823Z,7.64
2022-11-15T09:18:23.758Z,7.62
2022-11-15T09:21:10.061Z,7.61
2022-11-15T09:24:01.954Z,7.60
2022-11-15T09:26:47.338Z,7.66
2022-11-15T09:29:32.679Z,7.70
2022-11-15T09:32:18.085Z,7.79
2022-11-15T09:35:03.983Z,7.85
2022-11-15T09:37:53.574Z,7.88
2022-11-15T09:40:41.611Z,7.91
2022-11-15T09:43:33.771Z,7.89
2022-11-15T09:46:31.990Z,7.87
2022-11-15T09:49:18.883Z,7.85
2022-11-15T09:52:11.007Z,7.94
2022-11-15T09:54:56.269Z,8.03
2022-11-15T09:57:50.736Z,8.09
2022-11-15T10:00:46.492Z,8.15
2022-11-15T10:03:31.853Z,8.14
2022-11-15T10:06:03.898Z,8.18
2022-11-15T10:08:42.778Z,8.12
2022-11-15T10:14:10.143Z,8.14
2022-11-15T10:16:52.120Z,8.20
2022-11-15T10:19:44.656Z,8.25
2022-11-15T10:22:51.807Z,8.31
2022-11-15T10:25:22.293Z,8.35
2022-11-15T10:27:55.729Z,8.41
2022-11-15T10:30:23.045Z,8.38
2022-11-15T10:32:50.646Z,8.30
2022-11-15T10:35:29.134Z,8.25
2022-11-15T10:38:14.135Z,8.25
2022-11-15T10:40:45.905Z,8.23
2022-11-15T10:43:16.727Z,8.28
2022-11-15T10:45:44.587Z,8.34
2022-11-15T10:48:14.041Z,8.40
2022-11-15T10:50:46.115Z,8.43
2022-11-15T10:53:34.869Z,8.48
2022-11-15T10:56:12.377Z,8.48
2022-11-15T10:58:43.451Z,8.48
2022-11-15T11:01:22.992Z,8.48
2022-11-15T11:04:04.613Z,8.38
2022-11-15T11:06:46.800Z,8.38
2022-11-15T11:09:33.785Z,8.41
2022-11-15T11:12:01.889Z,8.43
2022-11-15T11:14:32.477Z,8.43
2022-11-15T11:17:01.779Z,8.41
2022-11-15T11:19:40.288Z,8.45
2022-11-15T11:22:21.305Z,8.46
2022-11-15T11:25:17.179Z,8.51
2022-11-15T11:28:10.983Z,8.53
2022-11-15T11:31:09.034Z,8.54
2022-11-15T11:33:39.239Z,8.55
2022-11-15T11:36:23.542Z,8.56
2022-11-15T11:39:21.855Z,8.60
2022-11-15T11:41:58.272Z,8.62
2022-11-15T11:45:04.701Z,8.65
2022-11-15T11:47:51.427Z,8.65
2022-11-15T11:50:26.806Z,8.62
2022-11-15T11:53:09.859Z,8.61
2022-11-15T11:55:51.131Z,8.59
2022-11-15T11:58:42.471Z,8.61
2022-11-15T12:01:12.714Z,8.61
2022-11-15T12:03:47.138Z,8.64
2022-11-15T12:06:25.426Z,8.65
2022-11-15T12:08:59.311Z,8.67
2022-11-15T12:11:47.637Z,8.67
2022-11-15T12:14:30.584Z,8.73
2022-11-15T12:16:58.883Z,8.78
2022-11-15T12:19:26.465Z,8.81
2022-11-15T12:21:55.986Z,8.85
2022-11-15T12:24:40.910Z,8.80
2022-11-15T12:27:26.323Z,8.80
2022-11-15T12:30:10.381Z,8.79
2022-11-15T12:32:39.409Z,8.76
2022-11-15T12:35:25.700Z,8.81
2022-11-15T12:37:56.897Z,8.82
2022-11-15T12:40:33.027Z,8.79
2022-11-15T12:43:16.418Z,8.79
2022-11-15T12:45:45.775Z,8.79
2022-11-15T12:48:18.515Z,8.80
2022-11-15T12:50:58.232Z,8.81
2022-11-15T12:53:34.127Z,8.80
2022-11-15T12:56:04.083Z,8.81
2022-11-15T12:58:44.242Z,8.81
2022-11-15T13:01:11.665Z,8.84
2022-11-15T13:04:13.579Z,8.85
2022-11-15T13:06:55.541Z,8.86
2022-11-15T13:09:37.553Z,8.80
2022-11-15T13:12:31.563Z,8.77
2022-11-15T13:15:00.456Z,8.77
2022-11-15T13:17:29.162Z,8.77
2022-11-15T13:20:18.434Z,8.75
2022-11-15T13:23:11.579Z,8.73
2022-11-15T13:26:14.113Z,8.72
2022-11-15T13:28:50.588Z,8.70
2022-11-15T13:31:37.323Z,8.66
2022-11-15T13:34:53.268Z,8.60
2022-11-15T13:37:22.894Z,8.58
2022-11-15T13:39:50.522Z,8.59
2022-11-15T13:42:21.966Z,8.59
2022-11-15T13:44:57.638Z,8.59
2022-11-15T13:47:28.140Z,8.58
2022-11-15T13:49:57.529Z,8.56
2022-11-15T13:52:32.580Z,8.43
2022-11-15T13:55:14.339Z,8.52
2022-11-15T13:57:41.121Z,8.52
2022-11-15T14:00:27.957Z,8.52
2022-11-15T14:02:56.452Z,8.53
2022-11-15T14:05:25.464Z,8.53
2022-11-15T14:08:01.882Z,8.51
2022-11-15T14:10:40.034Z,8.50
2022-11-15T14:13:31.853Z,8.48
2022-11-15T14:16:20.488Z,8.45
2022-11-15T14:18:50.428Z,8.43
2022-11-15T14:21:17.555Z,8.35
2022-11-15T14:23:44.880Z,8.40
2022-11-15T14:26:35.759Z,8.35
2022-11-15T14:29:28.290Z,8.36
2022-11-15T14:32:13.169Z,8.29
2022-11-15T14:34:39.901Z,8.31
2022-11-15T14:37:17.576Z,8.27
2022-11-15T14:39:44.264Z,8.28
2022-11-15T14:42:10.964Z,8.28
2022-11-15T14:44:40.170Z,8.27
2022-11-15T14:47:09.014Z,8.27
2022-11-15T14:49:35.800Z,8.27
2022-11-15T14:52:02.556Z,8.29
2022-11-15T14:54:29.247Z,8.27
2022-11-15T14:56:55.945Z,8.26
2022-11-15T14:59:22.665Z,8.28
2022-11-15T15:01:49.365Z,8.28
2022-11-15T15:04:16.068Z,8.30
2022-11-15T15:06:42.819Z,8.29
2022-11-15T15:09:09.593Z,8.26
2022-11-15T15:11:36.282Z,8.27
2022-11-15T15:14:03.042Z,8.25
2022-11-15T15:16:29.887Z,8.21
2022-11-15T15:18:56.764Z,8.18
2022-11-15T15:21:33.572Z,8.19
2022-11-15T15:24:04.280Z,8.19
2022-11-15T15:26:34.671Z,8.21
2022-11-15T15:29:01.501Z,8.21
2022-11-15T15:31:28.199Z,8.23
2022-11-15T15:33:54.883Z,8.21
2022-11-15T15:36:21.670Z,8.21
2022-11-15T15:38:48.385Z,8.20
2022-11-15T15:41:16.999Z,8.17
2022-11-15T15:43:44.739Z,8.21
2022-11-15T15:46:14.764Z,8.21
2022-11-15T15:48:41.700Z,8.22
2022-11-15T15:51:14.318Z,8.21
2022-11-15T15:53:46.473Z,8.21
2022-11-15T15:56:13.222Z,8.20
2022-11-15T15:58:47.063Z,8.21
2022-11-15T16:01:17.873Z,8.20
2022-11-15T16:03:45.624Z,8.19
2022-11-15T16:06:34.275Z,8.18
2022-11-15T16:09:14.647Z,8.18
2022-11-15T16:11:47.431Z,8.14
2022-11-15T16:14:14.336Z,8.17
2022-11-15T16:16:41.249Z,8.17
2022-11-15T16:19:12.018Z,8.19
2022-11-15T16:21:38.728Z,8.19
2022-11-15T16:24:05.573Z,8.18
2022-11-15T16:26:35.805Z,8.17
2022-11-15T16:29:02.590Z,8.17
2022-11-15T16:31:29.320Z,8.16
2022-11-15T16:33:56.098Z,8.17
2022-11-15T16:36:30.714Z,8.14
2022-11-15T16:38:58.845Z,8.06
2022-11-15T16:41:25.940Z,8.08
2022-11-15T16:43:52.580Z,8.07
2022-11-15T16:46:19.336Z,8.06
2022-11-15T16:48:46.662Z,8.05
2022-11-15T16:51:13.632Z,8.03
2022-11-15T16:53:40.451Z,8.01
2022-11-15T16:56:30.872Z,8.00
2022-11-15T16:58:59.064Z,8.00
2022-11-15T17:01:28.494Z,7.94
2022-11-15T17:03:55.653Z,7.95
2022-11-15T17:06:23.652Z,8.00
2022-11-15T17:08:50.398Z,8.02
2022-11-15T17:11:22.389Z,8.03
2022-11-15T17:13:49.689Z,8.05
2022-11-15T17:16:18.181Z,8.04
2022-11-15T17:18:45.889Z,8.02
2022-11-15T17:21:18.448Z,8.02
2022-11-15T17:23:45.684Z,8.01
2022-11-15T17:26:32.029Z,8.02
2022-11-15T17:29:01.597Z,8.03
2022-11-15T17:31:30.840Z,8.04
2022-11-15T17:33:57.625Z,8.04
2022-11-15T17:36:24.413Z,8.02
2022-11-15T17:38:58.082Z,7.97
2022-11-15T17:41:27.160Z,7.95
2022-11-15T17:43:55.644Z,7.91
2022-11-15T17:46:22.457Z,7.84
2022-11-15T17:48:49.448Z,7.82
2022-11-15T17:51:18.329Z,7.83
2022-11-15T17:53:46.846Z,7.74
2022-11-15T17:56:16.250Z,7.88
2022-11-15T17:58:57.413Z,7.86
2022-11-15T18:01:29.124Z,7.74
2022-11-15T18:03:57.243Z,7.86
2022-11-15T18:06:25.188Z,7.84
2022-11-15T18:08:55.903Z,7.89
2022-11-15T18:11:28.075Z,7.92
2022-11-15T18:13:57.733Z,7.93
2022-11-15T18:16:26.884Z,7.92
2022-11-15T18:18:55.053Z,7.93
2022-11-15T18:21:23.907Z,7.95
2022-11-15T18:23:56.865Z,7.94
2022-11-15T18:26:27.641Z,7.94
2022-11-15T18:28:57.760Z,7.93
2022-11-15T18:31:27.193Z,7.79
2022-11-15T18:33:54.777Z,7.90
2022-11-15T18:36:27.742Z,7.92
2022-11-15T18:38:59.179Z,7.94
2022-11-15T18:41:28.746Z,7.94
2022-11-15T18:43:57.477Z,7.93
2022-11-15T18:46:28.644Z,7.94
2022-11-15T18:48:56.228Z,7.92
2022-11-15T18:51:25.699Z,7.94
2022-11-15T18:53:54.932Z,7.93
2022-11-15T18:56:24.726Z,7.96
2022-11-15T18:58:55.106Z,7.95
2022-11-15T19:01:26.891Z,7.95
2022-11-15T19:03:55.998Z,7.93
2022-11-15T19:06:25.353Z,7.89
2022-11-15T19:08:54.639Z,7.90
2022-11-15T19:11:28.682Z,7.89
2022-11-15T19:13:57.570Z,7.85
2022-11-15T19:16:24.469Z,7.84
2022-11-15T19:18:58.809Z,7.89
2022-11-15T19:21:26.614Z,7.91
2022-11-15T19:23:54.330Z,7.89
2022-11-15T19:26:22.692Z,7.88
2022-11-15T19:28:54.413Z,7.89
2022-11-15T19:31:23.645Z,7.89
2022-11-15T19:33:51.403Z,7.85
2022-11-15T19:36:28.760Z,7.87
2022-11-15T19:38:57.014Z,7.84
2022-11-15T19:41:24.800Z,7.85
2022-11-15T19:43:52.672Z,7.82
2022-11-15T19:46:23.552Z,7.85
2022-11-15T19:48:51.805Z,7.82
2022-11-15T19:51:23.507Z,7.86
2022-11-15T19:53:53.226Z,7.87
2022-11-15T19:56:20.409Z,7.85
2022-11-15T19:58:49.827Z,7.86
2022-11-15T20:01:19.227Z,7.84
2022-11-15T20:03:46.815Z,7.83
2022-11-15T20:06:24.973Z,7.83
2022-11-15T20:08:52.524Z,7.82
2022-11-15T20:11:19.979Z,7.80
2022-11-15T20:13:48.928Z,7.82
2022-11-15T20:16:22.775Z,7.82
2022-11-15T20:18:57.583Z,7.81
2022-11-15T20:21:25.354Z,7.81
2022-11-15T20:23:52.815Z,7.72
2022-11-15T20:26:21.553Z,7.60
2022-11-15T20:28:49.560Z,7.58
2022-11-15T20:31:17.049Z,7.60
2022-11-15T20:33:44.402Z,7.59
2022-11-15T20:36:15.978Z,7.59
2022-11-15T20:38:43.641Z,7.59
2022-11-15T20:41:11.448Z,7.60
2022-11-15T20:43:38.179Z,7.60
2022-11-15T20:46:05.009Z,7.59
2022-11-15T20:48:32.405Z,7.46
2022-11-15T20:51:09.718Z,7.54
2022-11-15T20:53:36.526Z,7.54
2022-11-15T20:56:10.520Z,7.47
2022-11-15T20:58:38.174Z,7.47
2022-11-15T21:01:06.530Z,7.44
2022-11-15T21:03:33.991Z,7.37
2022-11-15T21:06:01.028Z,7.38
2022-11-15T21:08:27.720Z,7.35
2022-11-15T21:11:13.660Z,7.29
2022-11-15T21:13:40.496Z,7.26
2022-11-15T21:16:07.705Z,7.21
2022-11-15T21:18:34.599Z,7.22
2022-11-15T21:21:05.802Z,7.17
2022-11-15T21:23:32.516Z,7.14
2022-11-15T21:25:59.555Z,6.99
2022-11-15T21:28:26.424Z,6.97
2022-11-15T21:30:55.059Z,6.94
2022-11-15T21:33:23.836Z,6.91
2022-11-15T21:35:51.613Z,6.80
2022-11-15T21:38:18.646Z,6.78
2022-11-15T21:40:45.989Z,6.70
2022-11-15T21:43:12.707Z,6.64
2022-11-15T21:45:39.405Z,6.54
2022-11-15T21:48:06.391Z,6.54
2022-11-15T21:50:33.458Z,6.49
2022-11-15T21:53:00.196Z,6.38
2022-11-15T21:55:26.920Z,6.29
2022-11-15T21:57:53.628Z,6.34
2022-11-15T22:00:38.872Z,6.34
2022-11-15T22:03:05.602Z,6.33
2022-11-15T22:05:32.438Z,6.38
2022-11-15T22:07:59.205Z,6.41
2022-11-15T22:10:25.904Z,6.35
2022-11-15T22:12:52.611Z,6.28
2022-11-15T22:15:19.290Z,6.22
2022-11-15T22:17:58.130Z,6.17
2022-11-15T22:23:12.206Z,6.12
2022-11-15T22:25:38.977Z,6.08
2022-11-15T22:28:05.783Z,6.08
2022-11-15T22:30:32.615Z,6.09
2022-11-15T22:32:59.365Z,6.12
2022-11-15T22:35:26.243Z,6.18
2022-11-15T22:37:53.040Z,6.22
2022-11-15T22:40:19.923Z,6.25
2022-11-15T22:42:46.765Z,6.19
2022-11-15T22:45:13.560Z,6.23
2022-11-15T22:47:40.403Z,6.29
2022-11-15T22:50:07.772Z,6.32
2022-11-15T22:52:34.588Z,6.34
2022-11-15T22:55:01.330Z,6.34
2022-11-15T22:57:28.658Z,6.34
2022-11-15T22:59:55.493Z,6.34
2022-11-15T23:02:22.328Z,6.35
2022-11-15T23:04:49.220Z,6.35
2022-11-15T23:07:16.005Z,6.37
2022-11-15T23:09:45.448Z,6.36
2022-11-15T23:12:35.814Z,6.38
2022-11-15T23:15:02.625Z,6.40
2022-11-15T23:17:29.413Z,6.42
2022-11-15T23:19:56.173Z,6.43
2022-11-15T23:22:41.770Z,6.42
2022-11-15T23:25:08.817Z,6.40
2022-11-15T23:27:35.543Z,6.38
2022-11-15T23:30:21.233Z,6.33
2022-11-15T23:33:06.506Z,6.36
2022-11-15T23:35:33.331Z,6.26
2022-11-15T23:38:00.097Z,6.41
2022-11-15T23:40:26.954Z,6.39
2022-11-15T23:42:53.721Z,6.41
2022-11-15T23:45:20.477Z,6.41
2022-11-15T23:47:47.286Z,6.40
2022-11-15T23:50:14.101Z,6.38
2022-11-15T23:52:40.909Z,6.39
2022-11-15T23:55:08.000Z,6.37
2022-11-15T23:57:34.769Z,6.35
